createdAt,value
2023-01-02T00:03:49.366Z,2.86
2023-01-02T00:08:57.749Z,2.80
2023-01-02T00:14:08.708Z,2.69
2023-01-02T00:19:16.528Z,2.66
2023-01-02T00:24:26.193Z,2.59
2023-01-02T00:29:33.729Z,2.51
2023-01-02T00:34:41.725Z,2.45
2023-01-02T00:39:49.293Z,2.46
2023-01-02T00:44:57.433Z,2.45
2023-01-02T00:50:06.620Z,2.37
2023-01-02T00:55:17.362Z,2.28
2023-01-02T01:00:29.424Z,2.23
2023-01-02T01:05:40.061Z,2.21
2023-01-02T01:10:47.592Z,2.22
2023-01-02T01:15:56.290Z,2.23
2023-01-02T01:21:12.902Z,2.16
2023-01-02T01:26:21.641Z,2.12
2023-01-02T01:31:30.002Z,2.15
2023-01-02T01:36:41.620Z,2.16
2023-01-02T01:41:49.516Z,2.17
2023-01-02T01:46:57.730Z,2.25
2023-01-02T01:52:10.247Z,2.18
2023-01-02T01:57:21.593Z,2.23
2023-01-02T02:02:31.532Z,2.30
2023-01-02T02:10:25.157Z,2.35
2023-01-02T02:15:42.249Z,2.25
2023-01-02T02:20:59.412Z,2.25
2023-01-02T02:26:26.666Z,2.19
2023-01-02T02:31:42.241Z,2.06
2023-01-02T02:37:13.943Z,1.86
2023-01-02T02:42:33.150Z,1.76
2023-01-02T02:47:53.994Z,1.70
2023-01-02T02:53:09.475Z,1.69
2023-01-02T02:58:20.444Z,1.68
2023-01-02T03:03:29.483Z,1.64
2023-01-02T03:08:43.642Z,1.61
2023-01-02T03:14:03.722Z,1.57
2023-01-02T03:19:16.568Z,1.55
2023-01-02T03:24:28.225Z,1.61
2023-01-02T03:29:40.021Z,1.59
2023-01-02T03:34:50.349Z,1.56
2023-01-02T03:40:04.456Z,1.51
2023-01-02T03:45:20.661Z,1.38
2023-01-02T03:50:33.242Z,1.37
2023-01-02T03:55:43.469Z,1.42
2023-01-02T04:00:57.945Z,1.37
2023-01-02T04:17:14.271Z,1.12
2023-01-02T04:22:26.980Z,1.15
2023-01-02T04:27:39.401Z,1.10
2023-01-02T04:32:50.185Z,1.03
2023-01-02T04:37:59.157Z,0.96
2023-01-02T04:43:08.929Z,0.96
2023-01-02T04:48:16.715Z,0.85
2023-01-02T04:53:25.454Z,0.82
2023-01-02T04:58:33.579Z,0.90
2023-01-02T05:03:44.154Z,0.97
2023-01-02T05:08:52.266Z,1.06
2023-01-02T05:14:06.937Z,1.11
2023-01-02T05:19:17.579Z,1.12
2023-01-02T05:24:26.169Z,0.98
2023-01-02T05:29:34.193Z,0.82
2023-01-02T05:34:41.966Z,0.69
2023-01-02T05:39:49.699Z,0.57
2023-01-02T05:44:57.950Z,0.52
2023-01-02T05:50:06.035Z,0.47
2023-01-02T05:55:14.099Z,0.48
2023-01-02T06:00:22.561Z,0.49
2023-01-02T06:05:31.721Z,0.46
2023-01-02T06:10:39.462Z,0.47
2023-01-02T06:15:47.538Z,0.44
2023-01-02T06:21:00.413Z,0.48
2023-01-02T06:26:11.820Z,0.59
2023-01-02T06:31:22.696Z,0.58
2023-01-02T06:36:33.489Z,0.49
2023-01-02T06:41:41.599Z,0.47
2023-01-02T06:46:49.699Z,0.51
2023-01-02T06:51:58.060Z,0.50
2023-01-02T06:57:06.468Z,0.47
2023-01-02T07:02:16.495Z,0.47
2023-01-02T07:07:25.730Z,0.52
2023-01-02T07:12:36.048Z,0.68
2023-01-02T07:17:43.558Z,0.78
2023-01-02T07:22:57.747Z,0.90
2023-01-02T07:28:08.006Z,1.03
2023-01-02T07:33:18.887Z,1.11
2023-01-02T07:38:29.322Z,1.20
2023-01-02T07:43:38.307Z,1.31
2023-01-02T07:48:46.020Z,1.35
2023-01-02T07:53:54.977Z,1.41
2023-01-02T08:02:25.027Z,1.67
2023-01-02T08:07:34.484Z,1.83
2023-01-02T08:12:45.792Z,2.00
2023-01-02T08:17:54.047Z,2.18
2023-01-02T08:23:03.847Z,2.36
2023-01-02T08:28:11.565Z,2.51
2023-01-02T08:33:19.814Z,2.65
2023-01-02T08:38:27.807Z,2.73
2023-01-02T08:43:36.574Z,2.85
2023-01-02T08:48:47.048Z,2.98
2023-01-02T08:53:58.163Z,3.10
2023-01-02T08:59:08.813Z,3.21
2023-01-02T09:04:16.542Z,3.34
2023-01-02T09:09:28.045Z,3.47
2023-01-02T09:14:37.396Z,3.61
2023-01-02T09:19:45.667Z,3.71
2023-01-02T09:24:53.317Z,3.78
2023-01-02T09:30:02.801Z,3.88
2023-01-02T09:35:12.513Z,4.00
2023-01-02T09:40:20.424Z,4.13
2023-01-02T09:45:30.686Z,4.22
2023-01-02T09:50:39.645Z,4.31
2023-01-02T09:55:56.855Z,4.40
2023-01-02T10:01:05.351Z,4.53
2023-01-02T10:06:18.447Z,4.75
2023-01-02T10:11:35.266Z,4.96
2023-01-02T10:16:46.244Z,5.14
2023-01-02T10:22:17.735Z,5.36
2023-01-02T10:27:30.688Z,5.53
2023-01-02T10:36:02.341Z,5.87
2023-01-02T10:41:10.216Z,6.05
2023-01-02T10:46:17.479Z,6.24
2023-01-02T10:51:25.456Z,6.43
2023-01-02T10:56:35.818Z,6.60
2023-01-02T11:01:54.050Z,6.73
2023-01-02T11:07:03.922Z,6.86
2023-01-02T11:12:14.762Z,7.01
2023-01-02T11:17:25.151Z,7.16
2023-01-02T11:22:38.672Z,7.32
2023-01-02T11:27:47.070Z,7.47
2023-01-02T11:33:07.098Z,7.60
2023-01-02T11:38:30.174Z,7.72
2023-01-02T11:43:52.312Z,7.85
2023-01-02T11:49:05.142Z,7.98
2023-01-02T11:54:20.967Z,8.11
2023-01-02T11:59:37.774Z,8.26
2023-01-02T12:04:44.989Z,8.44
2023-01-02T12:24:34.682Z,8.84
2023-01-02T12:30:09.860Z,8.90
2023-01-02T12:35:36.229Z,8.95
2023-01-02T12:40:59.906Z,9.05
2023-01-02T12:46:18.769Z,9.21
2023-01-02T12:51:31.395Z,9.39
2023-01-02T12:56:46.275Z,9.56
2023-01-02T13:02:06.912Z,9.65
2023-01-02T13:07:19.703Z,9.75
2023-01-02T13:12:29.895Z,9.90
2023-01-02T13:17:58.233Z,10.00
2023-01-02T13:23:32.557Z,9.98
2023-01-02T13:28:45.372Z,9.92
2023-01-02T13:33:58.735Z,9.88
2023-01-02T13:39:18.662Z,9.91
2023-01-02T13:44:39.320Z,9.90
2023-01-02T13:49:50.535Z,9.86
2023-01-02T13:55:32.603Z,9.79
2023-01-02T14:00:51.617Z,9.73
2023-01-02T14:06:28.847Z,9.68
2023-01-02T14:11:55.736Z,9.63
2023-01-02T14:17:16.185Z,9.55
2023-01-02T14:22:25.061Z,9.42
2023-01-02T14:27:36.549Z,9.31
2023-01-02T14:32:47.443Z,9.18
2023-01-02T14:37:57.500Z,9.04
2023-01-02T14:43:27.063Z,8.93
2023-01-02T14:48:41.735Z,8.83
2023-01-02T14:53:53.545Z,8.68
2023-01-02T14:59:03.728Z,8.55
2023-01-02T15:04:22.915Z,8.39
2023-01-02T15:09:34.089Z,8.21
2023-01-02T15:14:44.295Z,8.08
2023-01-02T15:19:55.187Z,7.99
2023-01-02T15:25:04.828Z,7.88
2023-01-02T15:30:30.563Z,7.74
2023-01-02T15:35:39.229Z,7.60
2023-01-02T15:40:47.030Z,7.47
2023-01-02T15:45:58.313Z,7.36
2023-01-02T15:51:06.426Z,7.27
2023-01-02T16:04:28.976Z,7.05
2023-01-02T16:09:38.319Z,6.88
2023-01-02T16:14:50.992Z,6.74
2023-01-02T16:20:01.971Z,6.62
2023-01-02T16:25:17.323Z,6.54
2023-01-02T16:30:39.088Z,6.48
2023-01-02T16:36:00.566Z,6.37
2023-01-02T16:41:12.874Z,6.24
2023-01-02T16:46:20.834Z,6.10
2023-01-02T16:51:29.629Z,5.93
2023-01-02T16:56:37.851Z,5.84
2023-01-02T17:01:45.652Z,5.77
2023-01-02T17:06:56.374Z,5.70
2023-01-02T17:12:04.978Z,5.49
2023-01-02T17:17:13.414Z,5.33
2023-01-02T17:22:21.340Z,5.14
2023-01-02T17:27:31.694Z,5.06
2023-01-02T17:32:39.890Z,4.95
2023-01-02T17:37:50.284Z,4.70
2023-01-02T17:43:00.166Z,4.54
2023-01-02T17:48:12.224Z,4.48
2023-01-02T17:53:21.471Z,4.50
2023-01-02T17:58:30.415Z,4.52
2023-01-02T18:03:38.777Z,4.49
2023-01-02T18:08:48.765Z,4.44
2023-01-02T18:13:59.429Z,4.28
2023-01-02T18:19:12.626Z,4.13
2023-01-02T18:24:27.321Z,4.06
2023-01-02T18:29:35.130Z,4.00
2023-01-02T18:34:48.616Z,3.92
2023-01-02T18:40:01.732Z,3.84
2023-01-02T18:45:18.836Z,3.72
2023-01-02T18:50:33.588Z,3.59
2023-01-02T18:55:42.206Z,3.57
2023-01-02T19:02:59.839Z,3.64
2023-01-02T19:08:18.205Z,3.52
2023-01-02T19:13:25.899Z,3.42
2023-01-02T19:18:36.701Z,3.37
2023-01-02T19:23:46.278Z,3.36
2023-01-02T19:28:56.827Z,3.37
2023-01-02T19:34:02.928Z,3.35
2023-01-02T19:39:25.038Z,3.28
2023-01-02T19:44:29.217Z,3.19
2023-01-02T19:49:34.738Z,3.17
2023-01-02T19:54:39.936Z,3.17
2023-01-02T19:59:48.520Z,3.20
2023-01-02T20:04:55.650Z,3.22
2023-01-02T20:10:00.195Z,3.25
2023-01-02T20:15:09.920Z,3.30
2023-01-02T20:30:12.906Z,3.32
2023-01-02T20:35:20.302Z,3.22
2023-01-02T20:40:28.711Z,3.38
2023-01-02T20:45:36.065Z,3.64
2023-01-02T20:50:43.375Z,4.06
2023-01-02T20:55:51.490Z,4.38
2023-01-02T21:02:26.356Z,4.70
2023-01-02T21:07:34.024Z,4.79
2023-01-02T21:12:59.235Z,4.86
2023-01-02T21:18:10.379Z,4.85
2023-01-02T21:23:18.586Z,4.81
2023-01-02T21:28:27.390Z,4.79
2023-01-02T21:33:36.146Z,4.84
2023-01-02T21:38:45.480Z,4.90
2023-01-02T21:43:53.195Z,4.91
2023-01-02T21:49:01.725Z,4.92
2023-01-02T21:54:09.680Z,4.94
2023-01-02T21:59:17.569Z,5.00
2023-01-02T22:04:28.450Z,5.05
2023-01-02T22:09:36.696Z,5.07
2023-01-02T22:14:44.397Z,5.05
2023-01-02T22:19:52.505Z,5.05
2023-01-02T22:25:01.765Z,5.05
2023-01-02T22:30:24.308Z,5.01
2023-01-02T22:35:36.834Z,4.94
2023-01-02T22:40:44.441Z,4.95
2023-01-02T22:45:56.762Z,5.13
2023-01-02T22:51:05.587Z,5.28
2023-01-02T22:56:19.772Z,5.37
2023-01-02T23:01:32.921Z,5.39
2023-01-02T23:07:05.142Z,5.39
2023-01-02T23:12:08.900Z,5.39
2023-01-02T23:17:34.253Z,5.34
2023-01-02T23:22:42.246Z,5.32
2023-01-02T23:27:50.457Z,5.30
2023-01-02T23:32:57.928Z,5.24
2023-01-02T23:38:05.683Z,5.22
2023-01-02T23:43:14.040Z,5.23
2023-01-02T23:48:22.214Z,5.26
2023-01-02T23:53:30.650Z,5.23
2023-01-02T23:58:38.280Z,5.24
